sensor_id;sensor_type;location;lat;lon;timestamp;P1;durP1;ratioP1;P2;durP2;ratioP2
13477;SDS011;12598;62.382;17.344;2022-10-15T00:00:01;1.80;;;1.70;;
13477;SDS011;12598;62.382;17.344;2022-10-15T00:01:05;1.85;;;1.67;;
13477;SDS011;12598;62.382;17.344;2022-10-15T00:02:11;2.63;;;1.27;;
13477;SDS011;12598;62.382;17.344;2022-10-15T00:03:13;3.40;;;1.88;;
13477;SDS011;12598;62.382;17.344;2022-10-15T00:04:15;1.70;;;1.52;;
13477;SDS011;12598;62.382;17.344;2022-10-15T00:05:17;4.03;;;1.40;;
13477;SDS011;12598;62.382;17.344;2022-10-15T00:06:19;2.17;;;1.70;;
13477;SDS011;12598;62.382;17.344;2022-10-15T00:07:22;2.47;;;1.58;;
13477;SDS011;12598;62.382;17.344;2022-10-15T00:08:24;1.83;;;1.60;;
13477;SDS011;12598;62.382;17.344;2022-10-15T00:09:25;2.83;;;1.70;;
13477;SDS011;12598;62.382;17.344;2022-10-15T00:10:27;1.67;;;1.23;;
13477;SDS011;12598;62.382;17.344;2022-10-15T00:11:29;1.42;;;1.33;;
13477;SDS011;12598;62.382;17.344;2022-10-15T00:12:37;3.17;;;1.70;;
13477;SDS011;12598;62.382;17.344;2022-10-15T00:13:39;3.85;;;1.50;;
13477;SDS011;12598;62.382;17.344;2022-10-15T00:14:41;2.20;;;1.70;;
13477;SDS011;12598;62.382;17.344;2022-10-15T00:15:43;2.05;;;1.75;;
13477;SDS011;12598;62.382;17.344;2022-10-15T00:16:45;1.92;;;1.70;;
13477;SDS011;12598;62.382;17.344;2022-10-15T00:17:46;2.25;;;1.67;;
13477;SDS011;12598;62.382;17.344;2022-10-15T00:18:49;2.35;;;1.77;;
13477;SDS011;12598;62.382;17.344;2022-10-15T00:19:52;1.35;;;1.20;;
13477;SDS011;12598;62.382;17.344;2022-10-15T00:20:53;1.80;;;1.70;;
13477;SDS011;12598;62.382;17.344;2022-10-15T00:21:55;1.30;;;1.20;;
13477;SDS011;12598;62.382;17.344;2022-10-15T00:22:57;1.60;;;1.40;;
13477;SDS011;12598;62.382;17.344;2022-10-15T00:23:59;1.58;;;1.48;;
13477;SDS011;12598;62.382;17.344;2022-10-15T00:25:01;3.50;;;1.63;;
13477;SDS011;12598;62.382;17.344;2022-10-15T00:26:04;1.63;;;1.42;;
13477;SDS011;12598;62.382;17.344;2022-10-15T00:27:11;1.88;;;1.33;;
13477;SDS011;12598;62.382;17.344;2022-10-15T00:28:12;1.92;;;1.58;;
13477;SDS011;12598;62.382;17.344;2022-10-15T00:29:14;1.85;;;1.35;;
13477;SDS011;12598;62.382;17.344;2022-10-15T00:30:16;2.22;;;1.50;;
13477;SDS011;12598;62.382;17.344;2022-10-15T00:31:18;1.98;;;1.35;;
13477;SDS011;12598;62.382;17.344;2022-10-15T00:32:22;2.95;;;1.42;;
13477;SDS011;12598;62.382;17.344;2022-10-15T00:33:24;1.50;;;1.40;;
13477;SDS011;12598;62.382;17.344;2022-10-15T00:34:25;1.33;;;1.20;;
13477;SDS011;12598;62.382;17.344;2022-10-15T00:35:28;1.67;;;1.30;;
13477;SDS011;12598;62.382;17.344;2022-10-15T00:36:33;1.67;;;1.23;;
13477;SDS011;12598;62.382;17.344;2022-10-15T00:37:36;1.80;;;1.00;;
13477;SDS011;12598;62.382;17.344;2022-10-15T00:38:38;1.33;;;1.17;;
13477;SDS011;12598;62.382;17.344;2022-10-15T00:39:40;2.40;;;1.27;;
13477;SDS011;12598;62.382;17.344;2022-10-15T00:40:43;1.25;;;1.15;;
13477;SDS011;12598;62.382;17.344;2022-10-15T00:41:45;1.75;;;1.25;;
13477;SDS011;12598;62.382;17.344;2022-10-15T00:42:48;1.00;;;0.98;;
13477;SDS011;12598;62.382;17.344;2022-10-15T00:43:51;1.42;;;1.30;;
13477;SDS011;12598;62.382;17.344;2022-10-15T00:44:56;1.80;;;1.20;;
13477;SDS011;12598;62.382;17.344;2022-10-15T00:45:59;1.52;;;1.20;;
13477;SDS011;12598;62.382;17.344;2022-10-15T00:47:12;2.67;;;1.08;;
13477;SDS011;12598;62.382;17.344;2022-10-15T00:48:21;0.90;;;0.90;;
13477;SDS011;12598;62.382;17.344;2022-10-15T00:49:24;1.45;;;1.33;;
13477;SDS011;12598;62.382;17.344;2022-10-15T00:50:59;1.13;;;1.02;;
13477;SDS011;12598;62.382;17.344;2022-10-15T00:52:13;1.40;;;1.05;;
13477;SDS011;12598;62.382;17.344;2022-10-15T00:53:19;2.03;;;1.10;;
13477;SDS011;12598;62.382;17.344;2022-10-15T00:54:20;2.08;;;1.10;;
13477;SDS011;12598;62.382;17.344;2022-10-15T00:55:25;1.35;;;1.15;;
13477;SDS011;12598;62.382;17.344;2022-10-15T00:56:30;1.30;;;1.10;;
13477;SDS011;12598;62.382;17.344;2022-10-15T00:57:33;1.30;;;1.20;;
13477;SDS011;12598;62.382;17.344;2022-10-15T00:58:35;1.30;;;1.20;;
13477;SDS011;12598;62.382;17.344;2022-10-15T00:59:40;1.52;;;1.20;;
13477;SDS011;12598;62.382;17.344;2022-10-15T01:00:44;2.10;;;1.17;;
13477;SDS011;12598;62.382;17.344;2022-10-15T01:01:46;2.30;;;1.17;;
13477;SDS011;12598;62.382;17.344;2022-10-15T01:02:48;1.63;;;1.10;;
13477;SDS011;12598;62.382;17.344;2022-10-15T01:03:51;3.92;;;1.45;;
13477;SDS011;12598;62.382;17.344;2022-10-15T01:04:54;2.33;;;1.48;;
13477;SDS011;12598;62.382;17.344;2022-10-15T01:05:56;1.65;;;1.38;;
13477;SDS011;12598;62.382;17.344;2022-10-15T01:06:58;1.45;;;1.35;;
13477;SDS011;12598;62.382;17.344;2022-10-15T01:08:00;4.35;;;1.30;;
13477;SDS011;12598;62.382;17.344;2022-10-15T01:09:02;1.23;;;1.13;;
13477;SDS011;12598;62.382;17.344;2022-10-15T01:10:05;1.25;;;1.15;;
13477;SDS011;12598;62.382;17.344;2022-10-15T01:17:49;2.70;;;1.60;;
13477;SDS011;12598;62.382;17.344;2022-10-15T01:19:22;1.42;;;1.33;;
13477;SDS011;12598;62.382;17.344;2022-10-15T01:20:51;1.30;;;1.15;;
13477;SDS011;12598;62.382;17.344;2022-10-15T01:22:01;2.58;;;1.13;;
13477;SDS011;12598;62.382;17.344;2022-10-15T01:27:26;3.22;;;1.33;;
13477;SDS011;12598;62.382;17.344;2022-10-15T01:31:09;1.85;;;1.10;;
13477;SDS011;12598;62.382;17.344;2022-10-15T01:32:35;1.77;;;1.10;;
13477;SDS011;12598;62.382;17.344;2022-10-15T01:34:00;1.77;;;1.23;;
13477;SDS011;12598;62.382;17.344;2022-10-15T01:37:54;1.95;;;1.23;;
13477;SDS011;12598;62.382;17.344;2022-10-15T01:39:12;1.83;;;1.40;;
13477;SDS011;12598;62.382;17.344;2022-10-15T01:40:36;1.60;;;1.35;;
13477;SDS011;12598;62.382;17.344;2022-10-15T01:41:44;1.52;;;1.10;;
13477;SDS011;12598;62.382;17.344;2022-10-15T01:42:58;1.38;;;1.20;;
13477;SDS011;12598;62.382;17.344;2022-10-15T01:44:14;1.90;;;1.30;;
13477;SDS011;12598;62.382;17.344;2022-10-15T01:45:41;1.40;;;1.20;;
13477;SDS011;12598;62.382;17.344;2022-10-15T01:47:11;1.30;;;1.10;;
13477;SDS011;12598;62.382;17.344;2022-10-15T01:48:20;1.63;;;1.15;;
13477;SDS011;12598;62.382;17.344;2022-10-15T01:49:23;1.45;;;1.17;;
13477;SDS011;12598;62.382;17.344;2022-10-15T01:50:28;1.48;;;1.00;;
13477;SDS011;12598;62.382;17.344;2022-10-15T01:51:34;1.45;;;1.20;;
13477;SDS011;12598;62.382;17.344;2022-10-15T01:52:39;1.40;;;1.30;;
13477;SDS011;12598;62.382;17.344;2022-10-15T01:53:42;1.40;;;1.30;;
13477;SDS011;12598;62.382;17.344;2022-10-15T01:54:45;1.48;;;1.10;;
13477;SDS011;12598;62.382;17.344;2022-10-15T01:55:49;1.08;;;0.98;;
13477;SDS011;12598;62.382;17.344;2022-10-15T01:56:51;1.70;;;1.17;;
13477;SDS011;12598;62.382;17.344;2022-10-15T01:57:55;1.88;;;1.17;;
13477;SDS011;12598;62.382;17.344;2022-10-15T01:58:59;1.70;;;1.20;;
13477;SDS011;12598;62.382;17.344;2022-10-15T02:00:03;1.30;;;1.20;;
13477;SDS011;12598;62.382;17.344;2022-10-15T02:01:12;1.98;;;1.30;;
13477;SDS011;12598;62.382;17.344;2022-10-15T02:02:15;1.45;;;0.82;;
13477;SDS011;12598;62.382;17.344;2022-10-15T02:03:18;2.15;;;1.10;;
13477;SDS011;12598;62.382;17.344;2022-10-15T02:04:21;1.55;;;1.33;;
13477;SDS011;12598;62.382;17.344;2022-10-15T02:05:26;1.23;;;1.13;;
13477;SDS011;12598;62.382;17.344;2022-10-15T02:06:33;2.20;;;1.20;;
13477;SDS011;12598;62.382;17.344;2022-10-15T02:07:45;1.73;;;0.88;;
13477;SDS011;12598;62.382;17.344;2022-10-15T02:09:21;1.23;;;0.90;;
13477;SDS011;12598;62.382;17.344;2022-10-15T02:11:50;1.13;;;1.05;;
13477;SDS011;12598;62.382;17.344;2022-10-15T02:13:29;2.03;;;1.10;;
13477;SDS011;12598;62.382;17.344;2022-10-15T02:14:46;1.80;;;1.00;;
13477;SDS011;12598;62.382;17.344;2022-10-15T02:16:08;1.42;;;0.80;;
13477;SDS011;12598;62.382;17.344;2022-10-15T02:17:33;1.17;;;1.08;;
13477;SDS011;12598;62.382;17.344;2022-10-15T02:20:18;1.83;;;1.10;;
13477;SDS011;12598;62.382;17.344;2022-10-15T02:21:28;1.20;;;0.88;;
13477;SDS011;12598;62.382;17.344;2022-10-15T02:22:38;1.23;;;0.88;;
13477;SDS011;12598;62.382;17.344;2022-10-15T02:23:52;2.20;;;1.17;;
13477;SDS011;12598;62.382;17.344;2022-10-15T02:25:03;1.00;;;0.80;;
13477;SDS011;12598;62.382;17.344;2022-10-15T02:26:09;1.40;;;0.90;;
13477;SDS011;12598;62.382;17.344;2022-10-15T02:27:12;1.15;;;1.00;;
13477;SDS011;12598;62.382;17.344;2022-10-15T02:28:17;1.52;;;1.20;;
13477;SDS011;12598;62.382;17.344;2022-10-15T02:29:20;1.58;;;1.00;;
13477;SDS011;12598;62.382;17.344;2022-10-15T02:30:23;1.08;;;0.90;;
13477;SDS011;12598;62.382;17.344;2022-10-15T02:31:28;1.50;;;1.10;;
13477;SDS011;12598;62.382;17.344;2022-10-15T02:32:33;1.08;;;0.85;;
13477;SDS011;12598;62.382;17.344;2022-10-15T02:33:38;1.52;;;1.10;;
13477;SDS011;12598;62.382;17.344;2022-10-15T02:34:41;1.48;;;1.10;;
13477;SDS011;12598;62.382;17.344;2022-10-15T02:35:45;1.05;;;0.77;;
13477;SDS011;12598;62.382;17.344;2022-10-15T02:36:49;1.48;;;0.90;;
13477;SDS011;12598;62.382;17.344;2022-10-15T02:37:52;1.83;;;1.05;;
13477;SDS011;12598;62.382;17.344;2022-10-15T02:38:57;1.17;;;1.00;;
13477;SDS011;12598;62.382;17.344;2022-10-15T02:40:02;0.95;;;0.85;;
13477;SDS011;12598;62.382;17.344;2022-10-15T02:41:06;1.85;;;0.90;;
13477;SDS011;12598;62.382;17.344;2022-10-15T02:42:09;2.95;;;1.10;;
13477;SDS011;12598;62.382;17.344;2022-10-15T02:43:11;0.80;;;0.80;;
13477;SDS011;12598;62.382;17.344;2022-10-15T02:44:15;1.05;;;0.80;;
13477;SDS011;12598;62.382;17.344;2022-10-15T02:45:17;1.08;;;0.80;;
13477;SDS011;12598;62.382;17.344;2022-10-15T02:46:19;1.25;;;1.10;;
13477;SDS011;12598;62.382;17.344;2022-10-15T02:47:21;1.27;;;0.93;;
13477;SDS011;12598;62.382;17.344;2022-10-15T02:48:23;1.27;;;0.82;;
13477;SDS011;12598;62.382;17.344;2022-10-15T02:49:25;0.75;;;0.68;;
13477;SDS011;12598;62.382;17.344;2022-10-15T02:50:27;1.95;;;0.90;;
13477;SDS011;12598;62.382;17.344;2022-10-15T02:51:32;1.20;;;0.90;;
13477;SDS011;12598;62.382;17.344;2022-10-15T02:52:35;1.10;;;1.00;;
13477;SDS011;12598;62.382;17.344;2022-10-15T02:53:37;1.50;;;0.82;;
13477;SDS011;12598;62.382;17.344;2022-10-15T02:54:39;1.65;;;0.98;;
13477;SDS011;12598;62.382;17.344;2022-10-15T02:55:40;1.15;;;0.95;;
13477;SDS011;12598;62.382;17.344;2022-10-15T02:56:42;1.38;;;0.73;;
13477;SDS011;12598;62.382;17.344;2022-10-15T02:57:44;1.50;;;1.00;;
13477;SDS011;12598;62.382;17.344;2022-10-15T02:58:46;1.58;;;0.95;;
13477;SDS011;12598;62.382;17.344;2022-10-15T02:59:48;1.25;;;0.60;;
13477;SDS011;12598;62.382;17.344;2022-10-15T03:00:50;0.90;;;0.80;;
13477;SDS011;12598;62.382;17.344;2022-10-15T03:01:52;1.35;;;1.10;;
13477;SDS011;12598;62.382;17.344;2022-10-15T03:02:54;1.75;;;0.88;;
13477;SDS011;12598;62.382;17.344;2022-10-15T03:03:57;2.55;;;0.90;;
13477;SDS011;12598;62.382;17.344;2022-10-15T03:04:59;1.95;;;0.80;;
13477;SDS011;12598;62.382;17.344;2022-10-15T03:06:01;1.70;;;0.93;;
13477;SDS011;12598;62.382;17.344;2022-10-15T03:07:03;1.83;;;0.93;;
13477;SDS011;12598;62.382;17.344;2022-10-15T03:08:05;1.25;;;0.90;;
13477;SDS011;12598;62.382;17.344;2022-10-15T03:09:07;0.85;;;0.80;;
13477;SDS011;12598;62.382;17.344;2022-10-15T03:10:10;1.00;;;0.77;;
13477;SDS011;12598;62.382;17.344;2022-10-15T03:11:12;0.90;;;0.80;;
13477;SDS011;12598;62.382;17.344;2022-10-15T03:12:14;1.00;;;0.80;;
13477;SDS011;12598;62.382;17.344;2022-10-15T03:13:15;1.10;;;0.90;;
13477;SDS011;12598;62.382;17.344;2022-10-15T03:14:22;1.50;;;0.90;;
13477;SDS011;12598;62.382;17.344;2022-10-15T03:15:24;1.75;;;1.00;;
13477;SDS011;12598;62.382;17.344;2022-10-15T03:16:26;1.40;;;1.02;;
13477;SDS011;12598;62.382;17.344;2022-10-15T03:17:28;1.25;;;0.80;;
13477;SDS011;12598;62.382;17.344;2022-10-15T03:18:29;1.40;;;0.90;;
13477;SDS011;12598;62.382;17.344;2022-10-15T03:19:31;1.17;;;0.82;;
13477;SDS011;12598;62.382;17.344;2022-10-15T03:20:33;1.10;;;0.70;;
13477;SDS011;12598;62.382;17.344;2022-10-15T03:21:35;1.05;;;0.77;;
13477;SDS011;12598;62.382;17.344;2022-10-15T03:22:43;0.93;;;0.93;;
13477;SDS011;12598;62.382;17.344;2022-10-15T03:23:45;2.05;;;0.82;;
13477;SDS011;12598;62.382;17.344;2022-10-15T03:24:51;1.17;;;1.05;;
13477;SDS011;12598;62.382;17.344;2022-10-15T03:25:58;1.30;;;1.10;;
13477;SDS011;12598;62.382;17.344;2022-10-15T03:27:00;1.70;;;1.00;;
13477;SDS011;12598;62.382;17.344;2022-10-15T03:28:03;0.98;;;0.63;;
13477;SDS011;12598;62.382;17.344;2022-10-15T03:29:10;1.27;;;0.95;;
13477;SDS011;12598;62.382;17.344;2022-10-15T03:30:20;0.80;;;0.70;;
13477;SDS011;12598;62.382;17.344;2022-10-15T03:31:22;2.17;;;1.00;;
13477;SDS011;12598;62.382;17.344;2022-10-15T03:32:26;0.68;;;0.68;;
13477;SDS011;12598;62.382;17.344;2022-10-15T03:33:28;2.53;;;0.93;;
13477;SDS011;12598;62.382;17.344;2022-10-15T03:34:30;2.00;;;0.85;;
13477;SDS011;12598;62.382;17.344;2022-10-15T03:35:33;2.28;;;0.82;;
13477;SDS011;12598;62.382;17.344;2022-10-15T03:36:36;2.13;;;0.85;;
13477;SDS011;12598;62.382;17.344;2022-10-15T03:37:41;2.08;;;0.90;;
13477;SDS011;12598;62.382;17.344;2022-10-15T03:38:43;1.23;;;1.13;;
13477;SDS011;12598;62.382;17.344;2022-10-15T03:39:47;1.85;;;0.80;;
13477;SDS011;12598;62.382;17.344;2022-10-15T03:40:51;0.98;;;0.75;;
13477;SDS011;12598;62.382;17.344;2022-10-15T03:42:06;1.30;;;0.70;;
13477;SDS011;12598;62.382;17.344;2022-10-15T03:43:13;0.85;;;0.65;;
13477;SDS011;12598;62.382;17.344;2022-10-15T03:44:15;1.20;;;0.93;;
13477;SDS011;12598;62.382;17.344;2022-10-15T03:45:21;1.25;;;0.80;;
13477;SDS011;12598;62.382;17.344;2022-10-15T03:46:31;2.25;;;0.80;;
13477;SDS011;12598;62.382;17.344;2022-10-15T03:47:34;1.80;;;1.10;;
13477;SDS011;12598;62.382;17.344;2022-10-15T03:48:36;1.42;;;0.90;;
13477;SDS011;12598;62.382;17.344;2022-10-15T03:49:38;1.88;;;0.80;;
13477;SDS011;12598;62.382;17.344;2022-10-15T03:50:40;1.48;;;0.85;;
13477;SDS011;12598;62.382;17.344;2022-10-15T03:51:42;2.10;;;1.10;;
13477;SDS011;12598;62.382;17.344;2022-10-15T03:52:45;0.77;;;0.75;;
13477;SDS011;12598;62.382;17.344;2022-10-15T03:53:47;1.45;;;0.95;;
13477;SDS011;12598;62.382;17.344;2022-10-15T03:54:49;1.10;;;0.80;;
13477;SDS011;12598;62.382;17.344;2022-10-15T03:55:53;2.05;;;1.10;;
13477;SDS011;12598;62.382;17.344;2022-10-15T03:56:55;1.17;;;0.80;;
13477;SDS011;12598;62.382;17.344;2022-10-15T03:58:07;0.98;;;0.90;;
13477;SDS011;12598;62.382;17.344;2022-10-15T03:59:13;1.40;;;1.05;;
13477;SDS011;12598;62.382;17.344;2022-10-15T04:00:15;1.80;;;0.93;;
13477;SDS011;12598;62.382;17.344;2022-10-15T04:01:21;1.88;;;0.70;;
13477;SDS011;12598;62.382;17.344;2022-10-15T04:02:23;1.33;;;0.70;;
13477;SDS011;12598;62.382;17.344;2022-10-15T04:03:26;0.90;;;0.80;;
13477;SDS011;12598;62.382;17.344;2022-10-15T04:04:28;1.60;;;0.90;;
13477;SDS011;12598;62.382;17.344;2022-10-15T04:05:31;2.10;;;1.40;;
13477;SDS011;12598;62.382;17.344;2022-10-15T04:06:38;1.02;;;0.90;;
13477;SDS011;12598;62.382;17.344;2022-10-15T04:07:45;1.33;;;0.80;;
13477;SDS011;12598;62.382;17.344;2022-10-15T04:08:51;1.58;;;0.93;;
13477;SDS011;12598;62.382;17.344;2022-10-15T04:09:57;1.92;;;1.15;;
13477;SDS011;12598;62.382;17.344;2022-10-15T04:11:04;1.30;;;0.80;;
13477;SDS011;12598;62.382;17.344;2022-10-15T04:12:06;1.23;;;0.90;;
13477;SDS011;12598;62.382;17.344;2022-10-15T04:13:08;1.88;;;0.90;;
13477;SDS011;12598;62.382;17.344;2022-10-15T04:14:09;1.50;;;0.73;;
13477;SDS011;12598;62.382;17.344;2022-10-15T04:15:11;1.45;;;0.80;;
13477;SDS011;12598;62.382;17.344;2022-10-15T04:16:21;1.63;;;1.30;;
13477;SDS011;12598;62.382;17.344;2022-10-15T04:17:23;1.30;;;1.05;;
13477;SDS011;12598;62.382;17.344;2022-10-15T04:18:25;2.08;;;0.85;;
13477;SDS011;12598;62.382;17.344;2022-10-15T04:19:29;1.23;;;0.98;;
13477;SDS011;12598;62.382;17.344;2022-10-15T04:20:36;1.90;;;0.88;;
13477;SDS011;12598;62.382;17.344;2022-10-15T04:21:56;1.35;;;0.95;;
13477;SDS011;12598;62.382;17.344;2022-10-15T04:23:05;1.73;;;0.90;;
13477;SDS011;12598;62.382;17.344;2022-10-15T04:24:09;2.10;;;1.05;;
13477;SDS011;12598;62.382;17.344;2022-10-15T04:25:14;2.15;;;1.20;;
13477;SDS011;12598;62.382;17.344;2022-10-15T04:26:16;0.95;;;0.93;;
13477;SDS011;12598;62.382;17.344;2022-10-15T04:27:19;1.08;;;0.85;;
13477;SDS011;12598;62.382;17.344;2022-10-15T04:28:20;1.30;;;1.02;;
13477;SDS011;12598;62.382;17.344;2022-10-15T04:29:23;1.75;;;0.90;;
13477;SDS011;12598;62.382;17.344;2022-10-15T04:30:25;0.90;;;0.80;;
13477;SDS011;12598;62.382;17.344;2022-10-15T04:31:31;0.98;;;0.88;;
13477;SDS011;12598;62.382;17.344;2022-10-15T04:32:35;2.08;;;0.90;;
13477;SDS011;12598;62.382;17.344;2022-10-15T04:33:37;2.35;;;1.00;;
13477;SDS011;12598;62.382;17.344;2022-10-15T04:34:38;1.13;;;0.63;;
13477;SDS011;12598;62.382;17.344;2022-10-15T04:35:40;0.88;;;0.63;;
13477;SDS011;12598;62.382;17.344;2022-10-15T04:36:46;1.48;;;0.80;;
13477;SDS011;12598;62.382;17.344;2022-10-15T04:37:53;2.28;;;0.90;;
13477;SDS011;12598;62.382;17.344;2022-10-15T04:38:54;1.20;;;0.80;;
13477;SDS011;12598;62.382;17.344;2022-10-15T04:40:09;1.70;;;1.10;;
13477;SDS011;12598;62.382;17.344;2022-10-15T04:41:11;1.55;;;0.63;;
13477;SDS011;12598;62.382;17.344;2022-10-15T04:42:39;2.25;;;0.90;;
13477;SDS011;12598;62.382;17.344;2022-10-15T04:43:41;2.28;;;1.00;;
13477;SDS011;12598;62.382;17.344;2022-10-15T04:44:44;1.58;;;1.00;;
13477;SDS011;12598;62.382;17.344;2022-10-15T04:45:46;3.05;;;0.98;;
13477;SDS011;12598;62.382;17.344;2022-10-15T04:46:52;2.25;;;1.10;;
13477;SDS011;12598;62.382;17.344;2022-10-15T04:48:23;2.10;;;0.80;;
13477;SDS011;12598;62.382;17.344;2022-10-15T04:49:25;1.98;;;1.00;;
13477;SDS011;12598;62.382;17.344;2022-10-15T04:50:27;1.10;;;0.85;;
13477;SDS011;12598;62.382;17.344;2022-10-15T04:51:47;1.88;;;0.80;;
13477;SDS011;12598;62.382;17.344;2022-10-15T04:52:56;1.50;;;0.88;;
13477;SDS011;12598;62.382;17.344;2022-10-15T04:54:01;1.42;;;0.80;;
13477;SDS011;12598;62.382;17.344;2022-10-15T04:55:04;1.95;;;1.00;;
13477;SDS011;12598;62.382;17.344;2022-10-15T04:56:08;2.00;;;1.02;;
13477;SDS011;12598;62.382;17.344;2022-10-15T04:57:14;1.58;;;0.80;;
13477;SDS011;12598;62.382;17.344;2022-10-15T04:58:15;2.38;;;0.93;;
13477;SDS011;12598;62.382;17.344;2022-10-15T04:59:17;2.83;;;1.02;;
13477;SDS011;12598;62.382;17.344;2022-10-15T05:00:39;0.88;;;0.65;;
13477;SDS011;12598;62.382;17.344;2022-10-15T05:02:02;2.65;;;1.23;;
13477;SDS011;12598;62.382;17.344;2022-10-15T05:03:06;2.05;;;0.90;;
13477;SDS011;12598;62.382;17.344;2022-10-15T05:04:23;1.90;;;0.80;;
13477;SDS011;12598;62.382;17.344;2022-10-15T05:05:25;2.40;;;1.00;;
13477;SDS011;12598;62.382;17.344;2022-10-15T05:06:32;1.52;;;0.85;;
13477;SDS011;12598;62.382;17.344;2022-10-15T05:07:48;1.50;;;1.00;;
13477;SDS011;12598;62.382;17.344;2022-10-15T05:08:50;1.50;;;0.90;;
13477;SDS011;12598;62.382;17.344;2022-10-15T05:09:58;0.95;;;0.77;;
13477;SDS011;12598;62.382;17.344;2022-10-15T05:11:03;0.70;;;0.52;;
13477;SDS011;12598;62.382;17.344;2022-10-15T05:12:06;1.38;;;1.00;;
13477;SDS011;12598;62.382;17.344;2022-10-15T05:13:08;1.20;;;0.80;;
13477;SDS011;12598;62.382;17.344;2022-10-15T05:14:11;1.80;;;0.85;;
13477;SDS011;12598;62.382;17.344;2022-10-15T05:15:13;1.98;;;0.82;;
13477;SDS011;12598;62.382;17.344;2022-10-15T05:17:17;0.93;;;0.75;;
13477;SDS011;12598;62.382;17.344;2022-10-15T05:18:21;3.20;;;1.60;;
13477;SDS011;12598;62.382;17.344;2022-10-15T05:19:25;1.50;;;1.40;;
13477;SDS011;12598;62.382;17.344;2022-10-15T05:20:27;1.52;;;1.42;;
13477;SDS011;12598;62.382;17.344;2022-10-15T05:21:29;2.08;;;1.58;;
13477;SDS011;12598;62.382;17.344;2022-10-15T05:22:34;2.45;;;1.42;;
13477;SDS011;12598;62.382;17.344;2022-10-15T05:23:37;1.83;;;1.63;;
13477;SDS011;12598;62.382;17.344;2022-10-15T05:24:56;1.67;;;1.58;;
13477;SDS011;12598;62.382;17.344;2022-10-15T05:26:07;1.65;;;1.55;;
13477;SDS011;12598;62.382;17.344;2022-10-15T05:27:12;1.70;;;1.60;;
13477;SDS011;12598;62.382;17.344;2022-10-15T05:28:15;1.77;;;1.30;;
13477;SDS011;12598;62.382;17.344;2022-10-15T05:29:17;2.65;;;1.45;;
13477;SDS011;12598;62.382;17.344;2022-10-15T05:30:19;2.17;;;1.10;;
13477;SDS011;12598;62.382;17.344;2022-10-15T05:31:25;1.60;;;1.30;;
13477;SDS011;12598;62.382;17.344;2022-10-15T05:32:37;2.20;;;1.30;;
13477;SDS011;12598;62.382;17.344;2022-10-15T05:33:43;2.53;;;1.38;;
13477;SDS011;12598;62.382;17.344;2022-10-15T05:34:45;1.92;;;1.20;;
13477;SDS011;12598;62.382;17.344;2022-10-15T05:35:49;3.22;;;1.35;;
13477;SDS011;12598;62.382;17.344;2022-10-15T05:36:54;1.70;;;1.17;;
13477;SDS011;12598;62.382;17.344;2022-10-15T05:37:56;1.48;;;1.10;;
13477;SDS011;12598;62.382;17.344;2022-10-15T05:38:58;2.17;;;1.13;;
13477;SDS011;12598;62.382;17.344;2022-10-15T05:40:02;1.98;;;1.00;;
13477;SDS011;12598;62.382;17.344;2022-10-15T05:41:04;2.50;;;1.45;;
13477;SDS011;12598;62.382;17.344;2022-10-15T05:42:08;1.17;;;1.08;;
13477;SDS011;12598;62.382;17.344;2022-10-15T05:43:20;1.98;;;1.30;;
13477;SDS011;12598;62.382;17.344;2022-10-15T05:44:22;2.38;;;1.17;;
13477;SDS011;12598;62.382;17.344;2022-10-15T05:45:24;1.55;;;1.35;;
13477;SDS011;12598;62.382;17.344;2022-10-15T05:46:26;1.42;;;1.27;;
13477;SDS011;12598;62.382;17.344;2022-10-15T05:47:28;1.35;;;1.00;;
13477;SDS011;12598;62.382;17.344;2022-10-15T05:48:49;2.28;;;1.17;;
13477;SDS011;12598;62.382;17.344;2022-10-15T05:49:53;1.65;;;1.02;;
13477;SDS011;12598;62.382;17.344;2022-10-15T05:51:01;1.40;;;1.00;;
13477;SDS011;12598;62.382;17.344;2022-10-15T05:52:04;1.65;;;1.33;;
13477;SDS011;12598;62.382;17.344;2022-10-15T05:53:27;1.48;;;1.05;;
13477;SDS011;12598;62.382;17.344;2022-10-15T05:54:34;2.17;;;1.10;;
13477;SDS011;12598;62.382;17.344;2022-10-15T05:55:36;2.17;;;1.10;;
13477;SDS011;12598;62.382;17.344;2022-10-15T05:56:38;1.92;;;1.00;;
13477;SDS011;12598;62.382;17.344;2022-10-15T05:57:40;1.42;;;1.05;;
13477;SDS011;12598;62.382;17.344;2022-10-15T05:58:41;2.22;;;1.20;;
13477;SDS011;12598;62.382;17.344;2022-10-15T05:59:43;1.20;;;1.08;;
13477;SDS011;12598;62.382;17.344;2022-10-15T06:00:51;1.70;;;1.20;;
13477;SDS011;12598;62.382;17.344;2022-10-15T06:02:04;2.53;;;1.08;;
13477;SDS011;12598;62.382;17.344;2022-10-15T06:03:08;3.05;;;1.10;;
13477;SDS011;12598;62.382;17.344;2022-10-15T06:04:12;1.45;;;1.27;;
13477;SDS011;12598;62.382;17.344;2022-10-15T06:05:15;1.48;;;0.90;;
13477;SDS011;12598;62.382;17.344;2022-10-15T06:06:21;2.47;;;0.95;;
13477;SDS011;12598;62.382;17.344;2022-10-15T06:07:25;1.48;;;1.00;;
13477;SDS011;12598;62.382;17.344;2022-10-15T06:08:28;3.05;;;1.30;;
13477;SDS011;12598;62.382;17.344;2022-10-15T06:09:31;2.00;;;0.82;;
13477;SDS011;12598;62.382;17.344;2022-10-15T06:10:36;2.35;;;0.90;;
13477;SDS011;12598;62.382;17.344;2022-10-15T06:11:38;2.30;;;1.10;;
13477;SDS011;12598;62.382;17.344;2022-10-15T06:12:42;1.10;;;0.80;;
13477;SDS011;12598;62.382;17.344;2022-10-15T06:13:49;1.75;;;1.05;;
13477;SDS011;12598;62.382;17.344;2022-10-15T06:14:51;1.52;;;0.90;;
13477;SDS011;12598;62.382;17.344;2022-10-15T06:15:53;2.53;;;1.02;;
13477;SDS011;12598;62.382;17.344;2022-10-15T06:16:54;2.45;;;1.05;;
13477;SDS011;12598;62.382;17.344;2022-10-15T06:17:56;1.30;;;1.15;;
13477;SDS011;12598;62.382;17.344;2022-10-15T06:18:58;0.93;;;0.70;;
13477;SDS011;12598;62.382;17.344;2022-10-15T06:20:00;1.10;;;0.60;;
13477;SDS011;12598;62.382;17.344;2022-10-15T06:21:01;1.25;;;1.00;;
13477;SDS011;12598;62.382;17.344;2022-10-15T06:22:03;2.30;;;1.05;;
13477;SDS011;12598;62.382;17.344;2022-10-15T06:23:05;1.77;;;1.25;;
13477;SDS011;12598;62.382;17.344;2022-10-15T06:24:07;1.38;;;1.00;;
13477;SDS011;12598;62.382;17.344;2022-10-15T06:25:10;1.98;;;0.75;;
13477;SDS011;12598;62.382;17.344;2022-10-15T06:26:12;1.60;;;1.08;;
13477;SDS011;12598;62.382;17.344;2022-10-15T06:27:15;1.55;;;0.88;;
13477;SDS011;12598;62.382;17.344;2022-10-15T06:28:16;2.35;;;1.10;;
13477;SDS011;12598;62.382;17.344;2022-10-15T06:29:18;0.93;;;0.77;;
13477;SDS011;12598;62.382;17.344;2022-10-15T06:30:20;0.90;;;0.73;;
13477;SDS011;12598;62.382;17.344;2022-10-15T06:31:22;1.05;;;0.75;;
13477;SDS011;12598;62.382;17.344;2022-10-15T06:32:24;1.00;;;0.70;;
13477;SDS011;12598;62.382;17.344;2022-10-15T06:33:26;1.33;;;1.10;;
13477;SDS011;12598;62.382;17.344;2022-10-15T06:34:29;1.13;;;0.73;;
13477;SDS011;12598;62.382;17.344;2022-10-15T06:35:31;1.10;;;0.82;;
13477;SDS011;12598;62.382;17.344;2022-10-15T06:36:36;0.95;;;0.77;;
13477;SDS011;12598;62.382;17.344;2022-10-15T06:37:38;1.45;;;1.00;;
13477;SDS011;12598;62.382;17.344;2022-10-15T06:38:40;1.88;;;0.90;;
13477;SDS011;12598;62.382;17.344;2022-10-15T06:39:44;1.52;;;1.08;;
13477;SDS011;12598;62.382;17.344;2022-10-15T06:40:46;3.97;;;1.20;;
13477;SDS011;12598;62.382;17.344;2022-10-15T06:41:48;2.22;;;1.10;;
13477;SDS011;12598;62.382;17.344;2022-10-15T06:42:50;1.35;;;0.90;;
13477;SDS011;12598;62.382;17.344;2022-10-15T06:43:52;1.55;;;0.90;;
13477;SDS011;12598;62.382;17.344;2022-10-15T06:44:55;1.30;;;0.93;;
13477;SDS011;12598;62.382;17.344;2022-10-15T06:45:57;1.17;;;0.95;;
13477;SDS011;12598;62.382;17.344;2022-10-15T06:47:00;2.70;;;1.10;;